Terminal Aerodrome Forecast
Issued by NWS

Home | Current Version | Previous Version | Text Only | Print | Product List | Glossary On
Versions: 1 2 3 4 5 6 7 8 9 10 11 12 13 14 15
000
FTUS46 KLOX 201700 RRA
TAFSBA
TAF
KSBA 201745Z 2018/2118 24003KT P6SM FEW020 SCT030
     FM202000 24008KT P6SM SCT020 SCT150
     FM210300 VRB03KT P6SM SCT150=

USA.gov is the U.S. government's official web portal to all federal, state and local government web resources and services.